Terminal Aerodrome Forecast
Issued by NWS

Home | Current Version | Previous Version | Text Only | Print | Product List | Glossary On
Versions: 1 2 3 4 5 6 7 8 9 10 11 12 13 14 15
000
FTUS44 KBMX 251720
TAFMGM
TAF
KMGM 251720Z 2518/2618 VRB03KT P6SM FEW070 SCT120
     FM260300 00000KT P6SM FEW070
     FM261500 10004KT P6SM FEW070 FEW120=

USA.gov is the U.S. government's official web portal to all federal, state and local government web resources and services.